Time;durP1;ratioP1;P1;durP2;ratioP2;P2;SDS_P1;SDS_P2;PMS_P1;PMS_P2;Temp;Humidity;BMP_temperature;BMP_pressure;BME280_temperature;BME280_humidity;BME280_pressure;Samples;Min_cycle;Max_cycle;Signal;HPM_P1;HPM_P2
2021/05/17 00:02:12;;;;;;;16.80;2.33;;;31.30;21.50;;;;;;5039169;28;20116;-65
2021/05/17 00:04:41;;;;;;;11.60;1.80;;;31.40;21.90;;;;;;5039585;28;20532;-62
2021/05/17 00:07:10;;;;;;;9.90;2.13;;;31.40;20.70;;;;;;5036652;28;20081;-64
2021/05/17 00:09:37;;;;;;;8.02;1.20;;;31.50;20.50;;;;;;5043437;28;20094;-64
2021/05/17 00:12:06;;;;;;;13.43;1.55;;;31.30;17.80;;;;;;5039010;28;20165;-64
2021/05/17 00:14:33;;;;;;;13.52;1.40;;;31.40;18.60;;;;;;5056462;28;20084;-65
2021/05/17 00:16:59;;;;;;;12.77;1.33;;;31.40;18.60;;;;;;5041133;28;20078;-65
2021/05/17 00:19:26;;;;;;;9.60;1.77;;;31.40;19.10;;;;;;5040888;28;20482;-64
2021/05/17 00:21:53;;;;;;;15.98;1.77;;;31.40;19.30;;;;;;5042145;28;20148;-65
2021/05/17 00:24:21;;;;;;;10.00;1.65;;;31.30;18.10;;;;;;5039068;28;20139;-66
2021/05/17 00:26:48;;;;;;;11.65;2.08;;;31.20;18.10;;;;;;5039078;28;20069;-67
2021/05/17 00:29:15;;;;;;;9.32;1.40;;;31.20;16.40;;;;;;5038787;28;20473;-65
2021/05/17 00:31:43;;;;;;;10.43;1.90;;;31.10;15.60;;;;;;5054508;28;20543;-65
2021/05/17 00:34:10;;;;;;;23.23;1.90;;;31.00;16.30;;;;;;5040627;28;20079;-64
2021/05/17 00:36:38;;;;;;;12.85;1.88;;;30.70;16.70;;;;;;5042482;28;20077;-65
2021/05/17 00:39:11;;;;;;;13.70;1.80;;;30.90;17.10;;;;;;5039671;28;20101;-65
2021/05/17 00:41:39;;;;;;;27.33;2.28;;;30.70;17.70;;;;;;5040510;28;20131;-67
2021/05/17 00:44:06;;;;;;;20.63;2.20;;;30.70;20.30;;;;;;5041643;28;20607;-66
2021/05/17 00:46:33;;;;;;;14.98;2.47;;;30.30;21.90;;;;;;5040582;28;20092;-65
2021/05/17 00:49:01;;;;;;;12.77;2.10;;;30.10;22.00;;;;;;5040839;28;20177;-66
2021/05/17 00:51:28;;;;;;;18.45;1.90;;;30.10;21.30;;;;;;5040358;28;20519;-66
2021/05/17 00:53:55;;;;;;;16.67;2.03;;;30.10;20.90;;;;;;5043150;28;20113;-67
2021/05/17 00:56:22;;;;;;;17.92;1.90;;;30.10;20.60;;;;;;5039692;28;20168;-65
2021/05/17 00:58:49;;;;;;;12.20;1.50;;;30.10;20.30;;;;;;5042022;28;20085;-64
2021/05/17 01:01:17;;;;;;;11.80;1.90;;;30.00;19.60;;;;;;5040337;28;20108;-64
2021/05/17 01:03:44;;;;;;;8.23;1.58;;;30.00;19.90;;;;;;5041307;28;20438;-65
2021/05/17 01:06:11;;;;;;;16.85;1.77;;;29.90;20.80;;;;;;5037688;28;20435;-64
2021/05/17 01:08:50;;;;;;;19.20;2.42;;;29.80;19.80;;;;;;5039629;28;20100;-64
2021/05/17 01:11:18;;;;;;;26.42;2.55;;;29.60;19.10;;;;;;5038560;28;20062;-64
2021/05/17 01:13:45;;;;;;;40.25;2.92;;;29.50;19.40;;;;;;5036273;28;20081;-66
2021/05/17 01:16:12;;;;;;;44.22;2.83;;;29.40;19.00;;;;;;5039714;28;20135;-65
2021/05/17 01:18:40;;;;;;;35.30;3.50;;;29.30;18.90;;;;;;5039370;28;20070;-65
2021/05/17 01:21:07;;;;;;;17.23;2.10;;;29.30;19.10;;;;;;5039829;28;20081;-64
2021/05/17 01:23:49;;;;;;;13.20;1.30;;;29.30;19.80;;;;;;5038072;28;20081;-66
2021/05/17 01:26:16;;;;;;;19.13;2.28;;;29.20;19.80;;;;;;5036538;28;20074;-65
2021/05/17 01:28:44;;;;;;;15.32;1.98;;;29.20;19.50;;;;;;5037161;28;20578;-56
2021/05/17 01:31:12;;;;;;;19.75;1.70;;;29.10;19.80;;;;;;5038426;28;20076;-56
2021/05/17 01:33:41;;;;;;;44.03;1.95;;;29.00;20.20;;;;;;5038045;28;20073;-58
2021/05/17 01:36:10;;;;;;;12.77;1.85;;;29.00;20.40;;;;;;5037997;28;20078;-59
2021/05/17 01:38:39;;;;;;;7.72;1.88;;;29.20;20.80;;;;;;5039366;28;20133;-59
2021/05/17 01:41:10;;;;;;;16.67;1.98;;;29.50;20.80;;;;;;5038466;28;20107;-55
2021/05/17 01:43:45;;;;;;;17.48;3.22;;;29.60;21.10;;;;;;5038440;28;20082;-57
2021/05/17 01:46:27;;;;;;;15.82;5.00;;;30.00;22.00;;;;;;5039714;28;20084;-56
2021/05/17 01:48:56;;;;;;;14.93;1.70;;;30.20;22.00;;;;;;5039475;28;20151;-55
2021/05/17 01:51:23;;;;;;;11.48;2.00;;;29.90;22.20;;;;;;5039180;28;20078;-54
2021/05/17 01:53:50;;;;;;;9.65;1.63;;;29.80;22.10;;;;;;5039319;28;20578;-57
2021/05/17 01:56:18;;;;;;;19.05;2.35;;;29.50;20.90;;;;;;5037614;28;20578;-56
2021/05/17 01:58:45;;;;;;;10.25;1.67;;;29.20;21.80;;;;;;5039870;28;20073;-58
2021/05/17 02:01:14;;;;;;;18.65;2.30;;;28.80;22.80;;;;;;5036088;28;20440;-55
2021/05/17 02:03:44;;;;;;;21.67;2.00;;;28.40;24.40;;;;;;5038823;28;20158;-59
2021/05/17 02:06:14;;;;;;;16.02;2.30;;;27.60;25.10;;;;;;5038195;28;20062;-56
2021/05/17 02:08:49;;;;;;;15.27;2.10;;;27.50;26.00;;;;;;5038899;28;20129;-55
2021/05/17 02:11:18;;;;;;;13.48;2.22;;;27.20;26.40;;;;;;5041505;28;20420;-57
2021/05/17 02:13:45;;;;;;;14.10;2.28;;;26.90;26.80;;;;;;5045148;28;20527;-56
2021/05/17 02:16:13;;;;;;;16.30;1.92;;;26.40;27.90;;;;;;5043877;28;20804;-54
2021/05/17 02:18:41;;;;;;;14.80;2.30;;;26.40;28.30;;;;;;5041742;28;20074;-55
2021/05/17 02:21:09;;;;;;;10.25;2.88;;;26.20;28.90;;;;;;5039122;28;20078;-55
2021/05/17 02:23:36;;;;;;;16.73;2.88;;;26.00;29.20;;;;;;5038819;28;20527;-54
2021/05/17 02:26:03;;;;;;;8.65;1.90;;;25.90;29.30;;;;;;5041340;28;20078;-53
2021/05/17 02:28:30;;;;;;;7.80;1.70;;;25.90;29.60;;;;;;5042133;28;20586;-52
2021/05/17 02:30:57;;;;;;;12.00;1.98;;;25.80;29.80;;;;;;5042258;28;20162;-52
2021/05/17 02:33:23;;;;;;;11.45;2.15;;;25.70;30.20;;;;;;5041042;28;20565;-55
2021/05/17 02:35:50;;;;;;;9.05;2.00;;;25.60;30.30;;;;;;5042860;28;20100;-56
2021/05/17 02:38:17;;;;;;;12.50;1.90;;;25.30;30.90;;;;;;5041441;28;20112;-55
2021/05/17 02:40:45;;;;;;;16.88;2.22;;;25.20;31.40;;;;;;5042236;28;20069;-54
2021/05/17 02:43:13;;;;;;;17.15;2.10;;;25.10;31.40;;;;;;5039517;28;20074;-55
2021/05/17 02:45:40;;;;;;;23.67;2.65;;;25.00;32.20;;;;;;5042086;28;20082;-55
2021/05/17 02:48:09;;;;;;;21.85;2.92;;;24.80;32.80;;;;;;5045110;28;20070;-53
2021/05/17 02:50:42;;;;;;;16.48;2.95;;;24.70;33.20;;;;;;5040719;28;20085;-56
2021/05/17 02:53:40;;;;;;;16.10;2.50;;;24.50;33.60;;;;;;5044472;28;20166;-53
2021/05/17 02:56:09;;;;;;;15.10;3.22;;;24.40;33.90;;;;;;5012689;28;20086;-54
2021/05/17 02:58:39;;;;;;;27.52;3.40;;;24.20;34.30;;;;;;5042293;28;20088;-56
2021/05/17 03:01:21;;;;;;;15.25;2.42;;;24.20;34.80;;;;;;5040030;28;20481;-57
2021/05/17 03:03:52;;;;;;;17.25;3.20;;;24.00;35.20;;;;;;5037210;28;20127;-55
2021/05/17 03:06:40;;;;;;;18.85;3.30;;;23.90;35.50;;;;;;5042592;28;20446;-56
2021/05/17 03:09:10;;;;;;;14.30;3.50;;;23.70;35.70;;;;;;5040988;28;20093;-55
2021/05/17 03:11:51;;;;;;;14.15;3.47;;;23.70;35.50;;;;;;5041450;28;20096;-53
2021/05/17 03:14:19;;;;;;;20.90;3.47;;;23.70;35.50;;;;;;5039617;28;20527;-54
2021/05/17 03:16:52;;;;;;;12.38;2.78;;;23.70;35.40;;;;;;5039158;28;20152;-58
2021/05/17 03:19:20;;;;;;;22.23;3.05;;;23.60;35.30;;;;;;5040084;28;20156;-55
2021/05/17 03:21:47;;;;;;;19.77;2.40;;;23.50;44.50;;;;;;5040793;28;20073;-54
2021/05/17 03:24:15;;;;;;;14.43;2.95;;;23.50;35.00;;;;;;5039011;28;20116;-50
2021/05/17 03:26:42;;;;;;;23.30;3.53;;;23.50;35.00;;;;;;5041566;28;20086;-53
2021/05/17 03:29:09;;;;;;;13.00;3.50;;;23.40;34.90;;;;;;5044482;28;20098;-52
2021/05/17 03:31:35;;;;;;;19.00;3.05;;;23.40;34.70;;;;;;5041589;28;20077;-54
2021/05/17 03:34:02;;;;;;;17.10;1.90;;;23.70;52.40;;;;;;5043451;28;20144;-52
2021/05/17 03:36:28;;;;;;;11.77;2.63;;;24.40;33.80;;;;;;5041223;28;20092;-52
2021/05/17 03:38:55;;;;;;;10.55;2.72;;;23.30;33.10;;;;;;5041976;28;20156;-55
2021/05/17 03:41:22;;;;;;;24.88;2.60;;;23.40;33.90;;;;;;5042206;28;20078;-54
2021/05/17 03:43:48;;;;;;;9.10;2.10;;;23.30;34.00;;;;;;5043411;28;20109;-50
2021/05/17 03:46:14;;;;;;;19.95;3.33;;;23.30;34.10;;;;;;5043431;28;20081;-58
2021/05/17 03:48:41;;;;;;;21.05;2.60;;;23.30;34.40;;;;;;5042280;28;20766;-55
2021/05/17 03:51:11;;;;;;;19.92;2.47;;;23.20;34.50;;;;;;5038086;28;20136;-51
2021/05/17 03:53:38;;;;;;;23.23;2.58;;;23.10;34.90;;;;;;5039584;28;20113;-54
2021/05/17 03:56:05;;;;;;;12.65;2.00;;;23.00;35.30;;;;;;5041161;28;20105;-56
2021/05/17 03:58:32;;;;;;;27.35;2.78;;;23.00;35.70;;;;;;5042013;28;20078;-53
2021/05/17 04:01:00;;;;;;;16.67;1.98;;;22.90;35.90;;;;;;5038997;28;20525;-55
2021/05/17 04:03:27;;;;;;;15.10;2.58;;;22.80;36.20;;;;;;5042008;28;20081;-52
2021/05/17 04:13:58;;;;;;;9.07;2.15;;;22.50;37.50;;;;;;5041587;28;20184;-52
2021/05/17 04:16:25;;;;;;;18.15;2.50;;;22.40;37.60;;;;;;5043129;28;20073;-52
2021/05/17 04:18:52;;;;;;;10.32;2.28;;;22.40;37.70;;;;;;5041660;28;20086;-56
2021/05/17 04:21:19;;;;;;;25.80;3.70;;;22.30;37.80;;;;;;5038087;28;20071;-51
2021/05/17 04:23:45;;;;;;;17.90;3.00;;;22.30;37.90;;;;;;5041380;28;20131;-53
2021/05/17 04:26:12;;;;;;;14.80;2.65;;;22.30;38.00;;;;;;5041235;28;20117;-54
2021/05/17 04:28:38;;;;;;;11.50;2.20;;;22.30;38.10;;;;;;5040215;28;20105;-53
2021/05/17 04:31:05;;;;;;;9.48;2.47;;;22.30;38.00;;;;;;5041360;28;20094;-55
2021/05/17 04:33:31;;;;;;;11.57;2.95;;;22.30;38.00;;;;;;5041636;28;20159;-52
2021/05/17 04:35:58;;;;;;;15.93;3.20;;;22.30;38.00;;;;;;5039996;28;20078;-57
2021/05/17 04:38:24;;;;;;;14.98;2.97;;;22.40;37.90;;;;;;5042726;28;20084;-54
2021/05/17 04:40:51;;;;;;;12.25;3.08;;;22.30;37.90;;;;;;5039406;28;20196;-55
2021/05/17 04:43:17;;;;;;;10.80;2.35;;;22.20;38.10;;;;;;5042005;28;20186;-53
2021/05/17 04:45:44;;;;;;;13.90;2.05;;;22.20;38.40;;;;;;5038199;28;20078;-54
2021/05/17 04:48:10;;;;;;;9.85;2.72;;;22.20;38.50;;;;;;5038206;28;20524;-54
2021/05/17 04:50:37;;;;;;;14.85;2.45;;;22.20;38.30;;;;;;5040267;28;20085;-53
2021/05/17 04:53:04;;;;;;;10.68;2.17;;;22.10;38.40;;;;;;5039075;28;20114;-57
2021/05/17 04:55:30;;;;;;;12.02;1.70;;;22.10;38.50;;;;;;5040856;28;20074;-55
2021/05/17 04:57:57;;;;;;;7.22;2.00;;;22.20;38.00;;;;;;5039735;28;20100;-56
2021/05/17 05:00:23;;;;;;;9.23;2.50;;;22.20;37.70;;;;;;5041333;28;20082;-54
2021/05/17 05:02:50;;;;;;;12.77;2.50;;;22.20;37.50;;;;;;5037072;28;20074;-56
2021/05/17 05:05:16;;;;;;;16.33;2.67;;;22.20;37.40;;;;;;5038702;28;20070;-52
2021/05/17 05:07:44;;;;;;;9.10;2.20;;;22.20;37.20;;;;;;5041604;28;20089;-55
2021/05/17 05:10:11;;;;;;;7.03;2.38;;;22.20;37.20;;;;;;5040025;28;20129;-52
2021/05/17 05:12:38;;;;;;;5.25;1.80;;;22.20;37.30;;;;;;5041143;28;20160;-54
2021/05/17 05:15:06;;;;;;;9.38;2.13;;;22.10;37.30;;;;;;5039833;28;20078;-54
2021/05/17 05:17:33;;;;;;;17.80;2.33;;;22.10;37.50;;;;;;5040341;28;20101;-56
2021/05/17 05:19:59;;;;;;;9.50;2.05;;;22.10;37.60;;;;;;5040765;28;20077;-57
2021/05/17 05:22:25;;;;;;;8.98;2.47;;;22.00;38.00;;;;;;5040997;28;20157;-53
2021/05/17 05:24:55;;;;;;;6.88;1.98;;;21.90;38.30;;;;;;5037674;28;20136;-58
2021/05/17 05:27:37;;;;;;;6.53;2.03;;;21.80;38.60;;;;;;5038641;28;20085;-54
2021/05/17 05:32:54;;;;;;;9.93;2.30;;;21.80;39.00;;;;;;5037485;28;20188;-53
2021/05/17 05:35:21;;;;;;;8.23;2.45;;;21.60;39.10;;;;;;5039978;28;20097;-52
2021/05/17 05:37:48;;;;;;;7.10;1.77;;;21.70;39.30;;;;;;5041632;28;20143;-54
2021/05/17 05:40:14;;;;;;;6.07;1.88;;;21.70;39.50;;;;;;5037203;28;20140;-55
2021/05/17 05:42:41;;;;;;;5.25;1.60;;;21.60;39.40;;;;;;5037202;28;20072;-53
2021/05/17 05:45:10;;;;;;;9.50;1.77;;;21.60;39.70;;;;;;5039462;28;20188;-50
2021/05/17 05:47:37;;;;;;;8.55;2.00;;;21.50;39.90;;;;;;5038187;28;20762;-51
2021/05/17 05:50:04;;;;;;;9.20;1.70;;;21.50;39.90;;;;;;5038388;28;20471;-52
2021/05/17 05:52:30;;;;;;;4.60;1.83;;;21.50;40.10;;;;;;5037030;28;20101;-53
2021/05/17 05:55:03;;;;;;;12.30;2.10;;;21.40;40.20;;;;;;5040458;28;20081;-52
2021/05/17 05:57:36;;;;;;;9.48;1.92;;;21.40;40.30;;;;;;5037709;28;20477;-54
2021/05/17 06:00:04;;;;;;;8.02;1.65;;;21.40;40.40;;;;;;5037388;28;20434;-54
2021/05/17 06:02:32;;;;;;;7.35;1.70;;;21.40;40.40;;;;;;5037008;28;20092;-54
2021/05/17 06:04:58;;;;;;;9.65;2.70;;;21.40;40.40;;;;;;5041529;28;20107;-55
2021/05/17 06:07:25;;;;;;;7.93;1.90;;;21.30;40.30;;;;;;5037340;28;20132;-53
2021/05/17 06:09:51;;;;;;;8.52;2.45;;;21.30;40.50;;;;;;5038605;28;20097;-53
2021/05/17 06:12:19;;;;;;;10.52;3.45;;;21.30;40.60;;;;;;5038478;28;20543;-53
2021/05/17 06:14:48;;;;;;;8.82;2.55;;;21.30;40.60;;;;;;5037090;28;20101;-56
2021/05/17 06:17:15;;;;;;;8.40;3.03;;;21.30;40.70;;;;;;5037871;28;20074;-54
2021/05/17 06:19:42;;;;;;;8.35;3.28;;;21.30;40.70;;;;;;5041699;28;20105;-55
2021/05/17 06:22:08;;;;;;;15.68;3.13;;;21.30;40.70;;;;;;5021782;28;20156;-54
2021/05/17 06:24:35;;;;;;;8.95;2.70;;;21.30;40.60;;;;;;5038323;28;20097;-53
2021/05/17 06:27:02;;;;;;;13.50;3.40;;;21.30;40.60;;;;;;5037706;28;20085;-56
2021/05/17 06:29:29;;;;;;;13.55;3.90;;;21.30;40.70;;;;;;5035971;28;20098;-52
2021/05/17 06:31:56;;;;;;;10.85;4.03;;;21.20;40.90;;;;;;5038383;28;20082;-56
2021/05/17 06:34:23;;;;;;;7.60;3.72;;;21.20;41.00;;;;;;5034140;28;20528;-53
2021/05/17 06:36:49;;;;;;;7.95;3.63;;;21.20;40.80;;;;;;5035722;28;20078;-54
2021/05/17 06:39:16;;;;;;;10.43;3.13;;;21.30;40.80;;;;;;5037093;28;20113;-56
2021/05/17 06:41:42;;;;;;;8.52;2.85;;;21.30;40.70;;;;;;5040164;28;20066;-51
2021/05/17 06:44:09;;;;;;;10.77;3.08;;;21.30;40.60;;;;;;5041711;28;20070;-51
2021/05/17 06:46:37;;;;;;;9.75;3.30;;;21.40;40.50;;;;;;5036913;28;21200;-54
2021/05/17 06:49:05;;;;;;;9.05;3.30;;;21.50;40.60;;;;;;5038171;28;20551;-52
2021/05/17 06:51:32;;;;;;;9.02;2.78;;;21.50;40.20;;;;;;5038747;28;20069;-51
2021/05/17 06:54:01;;;;;;;11.20;3.50;;;21.60;40.00;;;;;;5037980;28;20110;-52
2021/05/17 06:57:18;;;;;;;12.55;2.92;;;21.60;40.20;;;;;;5037914;28;20093;-56
2021/05/17 06:59:20;;;;;;;7.18;2.90;;;21.60;40.00;;;;;;5035116;28;20665;-55
2021/05/17 07:01:46;;;;;;;5.70;2.50;;;21.60;40.10;;;;;;5040926;28;20074;-51
2021/05/17 07:04:15;;;;;;;5.93;2.40;;;21.70;40.00;;;;;;5040668;28;20512;-52
2021/05/17 07:06:52;;;;;;;9.25;2.85;;;21.60;40.00;;;;;;5044188;28;20098;-53
2021/05/17 07:12:14;;;;;;;13.30;3.10;;;21.60;40.30;;;;;;5015009;28;20629;-54
2021/05/17 07:14:41;;;;;;;9.50;2.67;;;21.60;40.30;;;;;;5041337;28;20070;-54
2021/05/17 07:17:07;;;;;;;10.30;2.53;;;21.50;40.40;;;;;;5044035;28;20070;-54
2021/05/17 07:19:34;;;;;;;9.13;2.40;;;21.50;40.70;;;;;;5040143;28;20168;-53
2021/05/17 07:24:46;;;;;;;9.88;2.55;;;21.50;41.00;;;;;;5039300;28;20077;-51
2021/05/17 07:27:12;;;;;;;7.07;2.33;;;21.40;41.20;;;;;;5043624;28;20251;-52
2021/05/17 07:29:39;;;;;;;9.68;2.30;;;21.30;41.60;;;;;;5039556;28;20618;-55
2021/05/17 07:32:09;;;;;;;8.60;2.80;;;21.20;41.80;;;;;;5038802;28;20078;-56
2021/05/17 07:34:36;;;;;;;5.90;2.40;;;21.20;42.00;;;;;;5037964;28;20089;-52
2021/05/17 07:37:06;;;;;;;7.35;2.30;;;21.20;42.10;;;;;;5040180;28;20081;-54
2021/05/17 07:39:34;;;;;;;8.45;2.75;;;21.10;42.20;;;;;;5040018;28;20431;-51
2021/05/17 07:42:02;;;;;;;4.38;2.58;;;21.10;42.30;;;;;;5042625;28;20078;-56
2021/05/17 07:44:30;;;;;;;10.55;2.78;;;21.10;42.30;;;;;;5035862;28;20115;-54
2021/05/17 07:46:57;;;;;;;11.82;2.70;;;21.00;42.40;;;;;;5043706;28;20070;-51
2021/05/17 07:49:35;;;;;;;10.43;2.63;;;21.00;42.60;;;;;;5038906;28;20471;-52
2021/05/17 07:52:03;;;;;;;3.78;2.10;;;20.90;42.50;;;;;;5041609;28;20524;-52
2021/05/17 07:54:31;;;;;;;9.73;2.17;;;20.80;42.70;;;;;;5039153;28;20096;-53
2021/05/17 07:56:58;;;;;;;8.82;2.10;;;20.70;42.80;;;;;;5040791;28;20220;-52
2021/05/17 07:59:28;;;;;;;4.65;1.98;;;20.70;42.80;;;;;;5038712;28;20085;-50
2021/05/17 08:01:56;;;;;;;6.50;1.83;;;20.60;42.90;;;;;;5039159;28;20085;-55
2021/05/17 08:04:23;;;;;;;7.82;1.92;;;20.70;42.90;;;;;;5039012;28;20089;-54
2021/05/17 08:06:51;;;;;;;8.00;2.40;;;20.70;43.00;;;;;;5041264;28;20074;-55
2021/05/17 08:09:18;;;;;;;4.85;2.03;;;20.60;42.90;;;;;;5038031;28;21402;-53
2021/05/17 08:11:46;;;;;;;7.85;1.98;;;20.70;42.80;;;;;;5038519;28;20076;-53
2021/05/17 08:14:15;;;;;;;9.48;2.22;;;20.70;42.80;;;;;;5040217;28;20093;-52
2021/05/17 08:16:41;;;;;;;4.78;1.92;;;20.60;42.90;;;;;;5040925;28;20078;-53
2021/05/17 08:19:08;;;;;;;5.25;2.10;;;20.60;42.90;;;;;;5038289;28;20078;-54
2021/05/17 08:21:34;;;;;;;8.00;1.80;;;20.60;42.90;;;;;;5040681;28;20157;-55
2021/05/17 08:24:01;;;;;;;3.17;1.70;;;20.50;43.00;;;;;;5040507;28;20451;-52
2021/05/17 08:26:28;;;;;;;7.57;1.77;;;20.50;43.20;;;;;;5038773;28;20507;-56
2021/05/17 08:28:54;;;;;;;4.55;1.48;;;20.50;43.30;;;;;;5041337;28;20089;-51
2021/05/17 08:31:23;;;;;;;9.95;2.08;;;20.50;43.50;;;;;;5039608;28;20073;-50
2021/05/17 08:33:50;;;;;;;8.20;1.88;;;20.40;43.80;;;;;;5038782;28;20135;-55
2021/05/17 08:36:17;;;;;;;4.82;1.70;;;20.40;44.20;;;;;;5040968;28;20080;-53
2021/05/17 08:38:43;;;;;;;14.02;2.20;;;20.40;44.60;;;;;;5040064;28;20093;-50
2021/05/17 08:41:14;;;;;;;4.88;1.70;;;20.30;44.70;;;;;;5040463;28;20078;-54
2021/05/17 08:43:42;;;;;;;6.97;1.80;;;20.20;44.90;;;;;;5041559;28;20074;-53
2021/05/17 08:46:11;;;;;;;4.00;1.60;;;20.30;45.00;;;;;;5040530;28;20106;-51
2021/05/17 08:48:48;;;;;;;7.38;1.65;;;20.30;45.00;;;;;;5040576;28;20095;-51
2021/05/17 08:51:17;;;;;;;8.25;1.83;;;20.20;45.20;;;;;;5037113;28;20077;-55
2021/05/17 08:53:46;;;;;;;7.07;1.58;;;20.20;45.20;;;;;;5040517;28;20133;-55
2021/05/17 08:56:14;;;;;;;4.38;1.58;;;20.10;45.20;;;;;;5039024;28;20168;-53
2021/05/17 08:58:40;;;;;;;4.18;1.80;;;20.20;45.20;;;;;;5040287;28;20439;-52
2021/05/17 09:01:07;;;;;;;10.75;1.92;;;20.10;45.20;;;;;;5039419;28;20120;-53
2021/05/17 09:03:33;;;;;;;8.43;1.63;;;20.20;45.20;;;;;;5039358;28;20070;-53
2021/05/17 09:06:09;;;;;;;5.32;1.60;;;20.20;45.20;;;;;;5035508;28;20132;-54
2021/05/17 09:08:43;;;;;;;5.37;1.70;;;20.20;45.20;;;;;;5034577;28;20112;-50
2021/05/17 09:11:11;;;;;;;6.38;1.48;;;20.20;45.20;;;;;;5037738;28;20074;-53
2021/05/17 09:13:37;;;;;;;4.28;1.60;;;20.10;45.20;;;;;;5038302;28;20116;-55
2021/05/17 09:16:04;;;;;;;3.88;1.50;;;20.10;45.20;;;;;;5040016;28;20073;-52
2021/05/17 09:18:31;;;;;;;5.55;1.98;;;20.10;45.20;;;;;;5038735;28;20073;-51
2021/05/17 09:20:59;;;;;;;9.00;1.70;;;20.20;45.10;;;;;;5039181;28;20551;-52
2021/05/17 09:23:31;;;;;;;5.47;1.33;;;20.10;45.10;;;;;;5037242;28;20070;-52
2021/05/17 09:26:12;;;;;;;10.35;1.80;;;20.20;45.00;;;;;;5036066;28;20101;-52
2021/05/17 09:28:51;;;;;;;3.22;1.50;;;20.10;44.90;;;;;;5039241;28;20098;-54
2021/05/17 09:31:22;;;;;;;3.72;1.63;;;20.10;44.90;;;;;;5035898;28;20601;-55
2021/05/17 09:33:57;;;;;;;4.70;2.20;;;20.10;44.90;;;;;;5037883;28;20513;-54
2021/05/17 09:36:36;;;;;;;3.33;1.90;;;20.10;44.90;;;;;;5036217;28;20081;-55
2021/05/17 09:39:12;;;;;;;6.03;1.50;;;20.10;45.00;;;;;;5041338;28;20082;-55
2021/05/17 09:41:39;;;;;;;6.80;1.88;;;20.00;45.10;;;;;;5039403;28;20527;-55
2021/05/17 09:44:06;;;;;;;5.47;1.73;;;20.00;45.10;;;;;;5035437;28;20080;-53
2021/05/17 09:46:54;;;;;;;3.38;1.30;;;20.00;45.20;;;;;;5037461;28;20132;-52
2021/05/17 09:49:31;;;;;;;4.47;1.65;;;20.00;45.10;;;;;;5037674;28;20101;-54
2021/05/17 09:52:15;;;;;;;3.47;1.55;;;20.10;45.10;;;;;;5035464;28;20081;-54
2021/05/17 09:55:02;;;;;;;2.70;1.63;;;20.10;45.00;;;;;;5036652;28;20085;-57
2021/05/17 09:57:32;;;;;;;7.53;1.90;;;20.10;45.00;;;;;;5039172;28;20571;-52
2021/05/17 10:00:17;;;;;;;6.90;2.35;;;20.10;45.10;;;;;;5037460;28;20161;-56
2021/05/17 10:02:52;;;;;;;5.25;2.10;;;20.10;45.30;;;;;;5037777;28;20123;-52
2021/05/17 10:05:18;;;;;;;4.93;1.90;;;20.10;45.60;;;;;;5037385;28;20106;-52
2021/05/17 10:07:50;;;;;;;13.57;2.10;;;20.00;45.80;;;;;;5038341;28;20165;-52
2021/05/17 10:10:17;;;;;;;11.18;2.60;;;19.90;46.10;;;;;;5040534;28;20126;-52
2021/05/17 10:12:44;;;;;;;6.80;1.98;;;19.90;46.30;;;;;;5039412;28;20431;-52
2021/05/17 10:15:13;;;;;;;6.75;2.20;;;19.90;46.40;;;;;;5037784;28;20078;-53
2021/05/17 10:17:40;;;;;;;6.55;2.40;;;19.90;46.20;;;;;;5039719;28;20486;-53
2021/05/17 10:20:13;;;;;;;6.35;1.90;;;19.90;46.10;;;;;;5035968;28;20082;-54
2021/05/17 10:22:41;;;;;;;6.22;1.98;;;19.90;46.20;;;;;;5037829;28;20517;-53
2021/05/17 10:25:09;;;;;;;10.48;2.60;;;19.90;46.50;;;;;;5037253;28;20081;-53
2021/05/17 10:27:47;;;;;;;5.80;1.60;;;19.90;46.60;;;;;;5037675;28;20074;-50
2021/05/17 10:30:16;;;;;;;6.57;2.25;;;19.90;46.50;;;;;;5040168;28;20192;-52
2021/05/17 10:32:53;;;;;;;7.82;2.10;;;19.90;46.60;;;;;;5038487;28;20078;-51
2021/05/17 10:35:26;;;;;;;6.38;2.03;;;19.80;46.50;;;;;;5045006;28;20446;-51
2021/05/17 10:38:20;;;;;;;5.35;2.08;;;19.80;46.90;;;;;;5042704;28;20070;-52
2021/05/17 10:40:52;;;;;;;6.18;2.28;;;19.70;47.10;;;;;;5042398;28;20100;-53
2021/05/17 10:43:53;;;;;;;14.18;2.00;;;19.70;47.40;;;;;;5040749;28;20077;-50
2021/05/17 10:47:00;;;;;;;7.18;2.20;;;19.50;47.90;;;;;;5043798;28;20084;-51
2021/05/17 10:49:37;;;;;;;7.53;1.83;;;19.50;48.20;;;;;;5041815;28;20606;-51
2021/05/17 10:52:06;;;;;;;9.65;1.95;;;19.40;48.40;;;;;;5039460;28;20077;-52
2021/05/17 10:54:46;;;;;;;9.05;2.67;;;19.40;48.50;;;;;;5040765;28;20089;-51
2021/05/17 10:57:40;;;;;;;6.35;2.38;;;19.30;48.50;;;;;;5039937;28;20084;-55
2021/05/17 11:03:13;;;;;;;6.15;2.10;;;19.40;48.40;;;;;;5041421;28;20078;-50
2021/05/17 11:05:42;;;;;;;5.82;2.50;;;19.40;48.40;;;;;;5040065;28;20445;-51
2021/05/17 11:08:12;;;;;;;7.90;2.60;;;19.40;48.50;;;;;;5040702;28;20077;-52
2021/05/17 11:10:51;;;;;;;7.90;1.92;;;19.30;48.50;;;;;;5042594;28;20086;-51
2021/05/17 11:13:18;;;;;;;7.93;2.70;;;19.30;48.50;;;;;;5041023;28;20127;-51
2021/05/17 11:15:47;;;;;;;5.93;2.20;;;19.30;48.50;;;;;;5039186;28;20082;-50
2021/05/17 11:18:13;;;;;;;5.57;2.20;;;19.40;48.40;;;;;;5040339;28;20127;-50
2021/05/17 11:23:20;;;;;;;7.25;2.30;;;19.40;48.20;;;;;;5040482;28;19958;-52
2021/05/17 11:26:04;;;;;;;5.38;1.98;;;19.50;48.10;;;;;;5036485;28;20070;-51
2021/05/17 11:28:41;;;;;;;6.65;2.05;;;19.50;47.80;;;;;;5039223;28;20184;-52
2021/05/17 11:31:29;;;;;;;8.82;2.30;;;19.50;47.90;;;;;;5041809;28;20077;-52
2021/05/17 11:34:01;;;;;;;5.80;1.88;;;19.60;47.90;;;;;;5042430;28;20077;-51
2021/05/17 11:36:46;;;;;;;7.38;2.20;;;19.60;47.90;;;;;;5039501;28;20078;-50
2021/05/17 11:39:28;;;;;;;7.75;2.42;;;19.60;47.90;;;;;;5041189;28;20089;-51
2021/05/17 11:41:57;;;;;;;7.40;2.35;;;19.60;47.90;;;;;;5039085;28;20127;-51
2021/05/17 11:44:26;;;;;;;6.45;2.47;;;19.50;48.10;;;;;;5038702;28;20543;-54
2021/05/17 11:47:14;;;;;;;6.60;1.90;;;19.50;48.30;;;;;;5039880;28;20105;-51
2021/05/17 11:49:42;;;;;;;9.48;2.45;;;19.40;48.50;;;;;;5042297;28;20467;-50
2021/05/17 11:52:12;;;;;;;5.72;2.45;;;19.40;48.70;;;;;;5042052;28;20066;-53
2021/05/17 11:54:49;;;;;;;6.40;2.50;;;19.40;48.70;;;;;;5039514;28;20086;-54
2021/05/17 11:57:17;;;;;;;3.75;2.08;;;19.30;48.80;;;;;;5040265;28;20124;-51
2021/05/17 11:59:44;;;;;;;6.20;2.03;;;19.30;48.80;;;;;;5039350;28;20081;-52
2021/05/17 12:02:11;;;;;;;3.83;1.90;;;19.30;48.80;;;;;;5040079;28;20105;-54
2021/05/17 12:04:39;;;;;;;7.10;1.88;;;19.30;48.70;;;;;;5041031;28;20077;-54
2021/05/17 12:07:12;;;;;;;3.58;1.90;;;19.30;48.50;;;;;;5039193;28;20066;-53
2021/05/17 12:09:45;;;;;;;3.83;1.40;;;19.40;48.40;;;;;;5042330;28;20098;-54
2021/05/17 12:12:23;;;;;;;3.90;1.77;;;19.40;48.10;;;;;;5040615;28;20082;-53
2021/05/17 12:14:52;;;;;;;7.30;1.63;;;19.50;47.90;;;;;;5038623;28;20123;-50
2021/05/17 12:17:24;;;;;;;3.88;2.00;;;19.50;47.70;;;;;;5038857;28;20081;-51
2021/05/17 12:19:55;;;;;;;2.33;1.50;;;19.50;47.80;;;;;;5039015;28;20532;-50
2021/05/17 12:22:36;;;;;;;5.55;1.98;;;19.50;47.90;;;;;;5037876;28;20080;-49
2021/05/17 12:25:09;;;;;;;3.53;2.15;;;19.50;47.90;;;;;;5041307;28;20078;-52
2021/05/17 12:27:37;;;;;;;4.50;2.10;;;19.50;48.00;;;;;;5041344;28;20135;-50
2021/05/17 12:30:14;;;;;;;8.05;1.90;;;19.50;47.90;;;;;;5040997;28;20128;-50
2021/05/17 12:32:49;;;;;;;5.70;1.80;;;19.50;47.80;;;;;;5035426;28;20078;-51
2021/05/17 12:35:38;;;;;;;5.90;1.75;;;19.50;47.90;;;;;;5037390;28;20069;-51
2021/05/17 12:38:13;;;;;;;4.00;1.92;;;19.50;47.90;;;;;;5040269;28;20070;-51
2021/05/17 12:40:41;;;;;;;6.93;2.25;;;19.50;47.90;;;;;;5039104;28;20081;-52
2021/05/17 12:43:34;;;;;;;5.70;2.53;;;19.50;47.90;;;;;;5034381;28;20081;-52
2021/05/17 12:46:02;;;;;;;4.15;1.85;;;19.50;48.20;;;;;;5041922;28;20448;-52
2021/05/17 12:48:40;;;;;;;5.15;2.10;;;19.50;48.40;;;;;;5040544;28;20536;-52
2021/05/17 12:51:17;;;;;;;14.10;2.28;;;19.50;48.60;;;;;;5038808;28;20519;-50
2021/05/17 12:53:43;;;;;;;;;;;19.50;48.90;;;;;;5039224;28;20200;-50
2021/05/17 12:56:22;;;;;;;7.35;2.45;;;19.50;49.00;;;;;;5037491;28;20064;-51
2021/05/17 12:58:48;;;;;;;8.13;2.30;;;19.40;49.70;;;;;;5037203;28;20069;-52
2021/05/17 13:01:17;;;;;;;4.82;2.25;;;19.40;49.10;;;;;;5039629;28;20074;-52
2021/05/17 13:03:46;;;;;;;6.40;2.38;;;19.40;49.10;;;;;;5037269;28;20169;-52
2021/05/17 13:06:29;;;;;;;9.32;2.15;;;19.40;49.10;;;;;;5041187;28;20434;-52
2021/05/17 13:09:07;;;;;;;7.28;2.63;;;19.30;49.10;;;;;;5038799;28;20573;-50
2021/05/17 13:11:43;;;;;;;7.97;2.25;;;19.30;49.20;;;;;;5039547;28;20129;-51
2021/05/17 13:14:23;;;;;;;7.07;1.98;;;19.30;49.20;;;;;;5039737;28;20119;-52
2021/05/17 13:16:55;;;;;;;11.82;2.15;;;19.30;49.20;;;;;;5039953;28;20073;-54
2021/05/17 13:30:58;;;;;;;9.52;2.47;;;19.50;49.30;;;;;;5036081;28;20465;-51
2021/05/17 13:33:47;;;;;;;6.97;2.58;;;19.50;49.20;;;;;;5039805;28;20532;-50